CheckWX is a tool to help pilots better visualize weather data.  It is not intended as a substitute for an official pre-flight weather briefing.

20:53:24 UTC

KOKC METAR
Will Rogers World Airport
Oklahoma City, Oklahoma, USA
Current

1 hour ago

KOKC 041952Z 19011G15KT 10SM CLR 36/22 A2980 RMK AO2 SLP073 T03560217
Observed
Jun-4 @ 19:52 UTC
Wind
  • 190° at 11 KTS
  • Gusting to 15 KTS
Visibility
Flight Rules
VFR
Cloud Levels
  • Clear skies
Temperature
36°C / 97°F
Dewpoint
22°C / 72°F
Humidity
44%
Altimeter
29.8" Hg
Pressure
1009.12 hPa
Previous

2 hours ago

KOKC 041852Z 19010KT 10SM CLR 34/22 A2982 RMK AO2 SLP078 T03390222
Observed
Jun-4 @ 18:52 UTC
Wind
  • 190° at 10 KTS
Visibility
Flight Rules
VFR
Cloud Levels
  • Clear skies
Temperature
34°C / 93°F
Dewpoint
22°C / 72°F
Humidity
49%
Altimeter
29.82" Hg
Pressure
1009.82 hPa
Previous

3 hours ago

KOKC 041752Z 20010G17KT 10SM FEW150 FEW250 33/22 A2983 RMK AO2 SLP082 T03280222 10328 20228 58003
Observed
Jun-4 @ 17:52 UTC
Wind
  • 200° at 10 KTS
  • Gusting to 17 KTS
Visibility
Flight Rules
VFR
Cloud Levels
  • Few at 15,000' AGL
  • Few at 25,000' AGL
Temperature
33°C / 91°F
Dewpoint
22°C / 72°F
Humidity
52%
Altimeter
29.83" Hg
Pressure
1010.12 hPa